Vallejo, CA

9:35 AM PDT on October 24, 2014 (GMT -0700)
Federal Terrace, VSFCD | Change Station
CLOSE
Current Station
Personal Weather Station
Location: Vallejo, CA
Elevation: 34 ft
Nearby Weather Stations

Elev 34 ft 38.13 °N, 122.27 °W | Updated 8 minutes ago

Clear
Clear
63.0 °F
Feels Like 63.0 °F
N
2.0
Wind Variable Wind from ESE
Gusts 7.0 mph

Today
High -- | Low -- °F
--% Chance of Precip.
Yesterday
High -- | Low -- °F
Precip. -- in
7:26 AM 6:18 PM
New Moon, 1% visible
Pressure 29.95 in
Visibility 10.0 miles
Clouds Clear
Dew Point 54 °F
Humidity 73%
Rainfall 0.00 in
Snow Depth Not available.
UV 1.1 out of 12
Pollen 2.60 out of 12
Ozone Good
Flu Activity Sporadic
METAR KAPC 241554Z AUTO 09005KT 10SM CLR 14/12 A2997 RMK AO2 SLP141 T01390117

More Conditions Fewer Conditions

Pressure 29.95 in
Visibility 10.0 miles
Clouds Clear
Dew Point 54 °F
Humidity 73%
Rainfall 0.00 in
Snow Depth Not available.
UV 1.1 out of 12
Pollen 2.60 out of 12
Ozone Good
Flu Activity Sporadic
METAR KAPC 241554Z AUTO 09005KT 10SM CLR 14/12 A2997 RMK AO2 SLP141 T01390117

More Conditions Fewer Conditions

10-Day Weather Forecast

Almanac

Astronomy

Oct. 24, 2014 Rise Set
Actual Time 7:26 AM PDT 6:18 PM PDT
Civil Twilight 6:59 AM PDT 6:45 PM PDT
Nautical Twilight 6:28 AM PDT 7:16 PM PDT
Astronomical Twilight 5:58 AM PDT 7:47 PM PDT
Moon 8:10 AM PDT 7:03 PM PDT
Length of Visible Light 11h 46m
Length of Day
10h 52m
Tomorrow will be 2m 16s shorter.
New Moon, 1% of the Moon is Illuminated
Today
New Moon
Oct 30
First Quarter
Nov 6
Full
Nov 14
Last Quarter
Nov 22
New

Today's Extremes

State Highs State Lows

Community

WunderPhotos

Upload Photos

1,764,603 photos uploaded!

WunderBlogs® & News

By Dr. Jeff Masters
Director of Meteorology, Weather Underground
By Kari Strenfel
Meteorologist, Weather Underground
By Christopher C. Burt
Weather Historian, Weather Underground
October 24, 2014
October 24, 2014
October 24, 2014

Nearby

Air Quality

  Air Quality AQ Index Pollutant
Yesterday Good
OZONE
Current Good
OZONE
Friday Good
OZONE
Saturday Good
OZONE
Sunday Good
OZONE
Monday Good
PM2.5
Tuesday Good
PM2.5

Snow Depth

Station Depth Elevation
Echo Peak 0 in 7800 ft
Ward Creek #3 9 in 6750 ft
Rubicon #2 1 in 7500 ft
Squaw Valley 0 in 8200 ft
Forestdale Creek 0 in 8029 ft

Earthquake Activity

City Distance Mag. Time & Date
No recent earthquake activity has been reported nearby.
Minimum magnitude displayed is 2.5.

Coastal Water Temperatures

Place Temperature
San Francisco, CA 63.0 °F
Richmond, CA 64.0 °F
Port Chicago, CA 66.0 °F

Nearby Weather Stations